createdAt,value
2022-08-12T00:00:36.532Z,100712.38
2022-08-12T00:03:24.568Z,100703.19
2022-08-12T00:06:11.488Z,100703.00
2022-08-12T00:08:58.268Z,100706.72
2022-08-12T00:11:45.612Z,100697.94
2022-08-12T00:14:32.275Z,100715.31
2022-08-12T00:17:19.665Z,100682.22
2022-08-12T00:20:07.509Z,100700.00
2022-08-12T00:22:59.890Z,100711.22
2022-08-12T00:26:21.496Z,100710.63
2022-08-12T00:29:04.767Z,100714.53
2022-08-12T00:31:51.527Z,100709.41
2022-08-12T00:34:37.849Z,100715.31
2022-08-12T00:37:26.019Z,100712.91
2022-08-12T00:40:15.839Z,100708.72
2022-08-12T00:42:46.209Z,100702.06
2022-08-12T00:45:15.211Z,100707.66
2022-08-12T00:47:44.671Z,100702.84
2022-08-12T00:50:19.651Z,100708.22
2022-08-12T00:52:52.116Z,100690.25
2022-08-12T00:55:21.897Z,100712.91
2022-08-12T00:57:52.180Z,100716.31
2022-08-12T01:00:23.156Z,100701.69
2022-08-12T01:02:55.708Z,100713.84
2022-08-12T01:05:43.612Z,100722.13
2022-08-12T01:08:46.090Z,100722.56
2022-08-12T01:11:30.082Z,100715.91
2022-08-12T01:14:00.680Z,100724.44
2022-08-12T01:16:29.875Z,100700.13
2022-08-12T01:18:59.884Z,100715.31
2022-08-12T01:21:57.965Z,100723.59
2022-08-12T01:24:52.478Z,100724.84
2022-08-12T01:27:23.387Z,100714.69
2022-08-12T01:29:54.898Z,100715.25
2022-08-12T01:32:24.764Z,100709.91
2022-08-12T01:34:59.351Z,100688.44
2022-08-12T01:37:31.561Z,100729.13
2022-08-12T01:40:35.056Z,100707.09
2022-08-12T01:42:53.187Z,100722.78
2022-08-12T01:45:25.034Z,100728.31
2022-08-12T01:48:06.133Z,100746.19
2022-08-12T01:50:43.138Z,100739.91
2022-08-12T01:53:16.006Z,100725.84
2022-08-12T01:55:48.194Z,100726.03
2022-08-12T01:58:27.276Z,100723.72
2022-08-12T02:01:01.407Z,100708.31
2022-08-12T02:04:05.176Z,100725.06
2022-08-12T02:06:57.853Z,100719.50
2022-08-12T02:09:58.420Z,100714.81
2022-08-12T02:12:43.751Z,100700.00
2022-08-12T02:15:27.078Z,100713.84
2022-08-12T02:18:09.894Z,100719.66
2022-08-12T02:20:51.656Z,100711.78
2022-08-12T02:23:27.239Z,100704.31
2022-08-12T02:25:59.874Z,100712.00
2022-08-12T02:28:31.944Z,100726.13
2022-08-12T02:31:05.664Z,100726.50
2022-08-12T02:33:35.324Z,100729.63
2022-08-12T02:36:05.211Z,100725.41
2022-08-12T02:38:34.451Z,100719.56
2022-08-12T02:41:07.070Z,100715.81
2022-08-12T02:43:41.509Z,100720.53
2022-08-12T02:46:14.897Z,100715.81
2022-08-12T02:48:51.191Z,100717.94
2022-08-12T02:51:24.847Z,100637.34
2022-08-12T02:54:04.640Z,100725.88
2022-08-12T02:56:40.689Z,100725.13
2022-08-12T02:59:16.903Z,100691.03
2022-08-12T03:01:49.853Z,100700.44
2022-08-12T03:04:27.730Z,100716.75
2022-08-12T03:07:05.691Z,100710.81
2022-08-12T03:09:49.912Z,100713.78
2022-08-12T03:12:33.999Z,100706.66
2022-08-12T03:15:10.021Z,100718.97
2022-08-12T03:17:46.251Z,100716.28
2022-08-12T03:20:41.000Z,100692.03
2022-08-12T03:23:19.399Z,100694.63
2022-08-12T03:26:01.991Z,100708.41
2022-08-12T03:28:50.040Z,100692.06
2022-08-12T03:31:22.336Z,100682.31
2022-08-12T03:34:02.144Z,100682.81
2022-08-12T03:36:35.387Z,100716.56
2022-08-12T03:39:22.987Z,100668.03
2022-08-12T03:42:22.508Z,100704.25
2022-08-12T03:45:15.949Z,100703.75
2022-08-12T03:48:18.576Z,100696.13
2022-08-12T03:51:06.516Z,100701.41
2022-08-12T03:53:53.458Z,100700.28
2022-08-12T03:56:40.107Z,100712.66
2022-08-12T03:59:26.939Z,100689.25
2022-08-12T04:01:58.577Z,100716.88
2022-08-12T04:04:34.112Z,100694.69
2022-08-12T04:07:07.962Z,100719.19
2022-08-12T04:09:39.187Z,100719.94
2022-08-12T04:12:26.373Z,100696.81
2022-08-12T04:14:57.100Z,100742.53
2022-08-12T04:17:28.267Z,100698.47
2022-08-12T04:20:00.132Z,100726.25
2022-08-12T04:22:30.791Z,100707.00
2022-08-12T04:25:02.088Z,100723.06
2022-08-12T04:27:32.779Z,100729.47
2022-08-12T04:30:21.000Z,100717.41
2022-08-12T04:32:53.881Z,100718.53
2022-08-12T04:35:24.191Z,100715.31
2022-08-12T04:38:00.150Z,100693.09
2022-08-12T04:40:31.513Z,100704.69
2022-08-12T04:43:02.384Z,100717.16
2022-08-12T04:45:34.941Z,100714.31
2022-08-12T04:48:06.096Z,100707.88
2022-08-12T04:50:37.334Z,100719.19
2022-08-12T04:53:09.813Z,100724.94
2022-08-12T04:55:39.521Z,100721.84
2022-08-12T04:58:09.119Z,100721.44
2022-08-12T05:00:39.008Z,100711.75
2022-08-12T05:03:10.969Z,100719.53
2022-08-12T05:05:43.990Z,100712.22
2022-08-12T05:08:14.090Z,100722.03
2022-08-12T05:10:44.784Z,100715.81
2022-08-12T05:13:29.561Z,100704.16
2022-08-12T05:16:04.408Z,100687.16
2022-08-12T05:18:39.457Z,100699.31
2022-08-12T05:21:10.838Z,100689.38
2022-08-12T05:23:43.074Z,100677.97
2022-08-12T05:26:12.179Z,100683.47
2022-08-12T05:28:41.756Z,100686.00
2022-08-12T05:31:11.323Z,100695.63
2022-08-12T05:33:41.094Z,100689.50
2022-08-12T05:36:14.131Z,100698.06
2022-08-12T05:38:59.092Z,100705.06
2022-08-12T05:41:29.956Z,100711.38
2022-08-12T05:44:01.170Z,100705.94
2022-08-12T05:46:34.184Z,100666.09
2022-08-12T05:49:06.476Z,100686.09
2022-08-12T05:51:41.398Z,100688.13
2022-08-12T05:54:11.613Z,100692.94
2022-08-12T05:56:41.821Z,100690.09
2022-08-12T05:59:12.411Z,100689.41
2022-08-12T06:02:12.593Z,100677.50
2022-08-12T06:04:33.369Z,100683.28
2022-08-12T06:07:48.732Z,100683.19
2022-08-12T06:09:57.874Z,100704.00
2022-08-12T06:12:26.734Z,100708.56
2022-08-12T06:14:55.830Z,100712.91
2022-08-12T06:17:24.915Z,100716.84
2022-08-12T06:20:27.071Z,100712.00
2022-08-12T06:22:45.374Z,100719.03
2022-08-12T06:25:22.157Z,100728.19
2022-08-12T06:28:07.234Z,100713.88
2022-08-12T06:30:39.385Z,100715.22
2022-08-12T06:33:49.760Z,100707.25
2022-08-12T06:35:58.916Z,100684.81
2022-08-12T06:38:31.455Z,100661.41
2022-08-12T06:41:19.841Z,100664.88
2022-08-12T06:44:04.967Z,100709.50
2022-08-12T06:46:38.967Z,100703.41
2022-08-12T06:49:08.839Z,100696.38
2022-08-12T06:51:37.723Z,100685.22
2022-08-12T06:54:10.621Z,100683.09
2022-08-12T06:57:03.188Z,100718.22
2022-08-12T06:59:28.722Z,100714.34
2022-08-12T07:01:57.667Z,100703.44
2022-08-12T07:04:36.759Z,100709.94
2022-08-12T07:07:07.417Z,100706.66
2022-08-12T07:10:04.805Z,100691.75
2022-08-12T07:12:32.485Z,100654.84
2022-08-12T07:15:02.741Z,100689.97
2022-08-12T07:17:38.011Z,100691.41
2022-08-12T07:20:29.661Z,100695.88
2022-08-12T07:23:01.751Z,100702.19
2022-08-12T07:25:41.058Z,100672.34
2022-08-12T07:28:16.628Z,100701.41
2022-08-12T07:30:48.719Z,100702.75
2022-08-12T07:33:19.391Z,100691.94
2022-08-12T07:35:48.838Z,100699.63
2022-08-12T07:38:29.875Z,100681.34
2022-08-12T07:41:06.210Z,100700.66
2022-08-12T07:43:38.951Z,100675.81
2022-08-12T07:46:10.509Z,100689.28
2022-08-12T07:48:42.219Z,100669.63
2022-08-12T07:51:12.809Z,100690.25
2022-08-12T07:54:00.828Z,100673.34
2022-08-12T07:56:33.491Z,100673.03
2022-08-12T07:59:03.207Z,100668.59
2022-08-12T08:01:33.220Z,100668.41
2022-08-12T08:04:24.044Z,100635.06
2022-08-12T08:06:55.270Z,100611.31
2022-08-12T08:09:25.004Z,100654.34
2022-08-12T08:12:19.090Z,100646.25
2022-08-12T08:14:49.749Z,100653.13
2022-08-12T08:17:19.228Z,100654.38
2022-08-12T08:20:03.529Z,100659.44
2022-08-12T08:22:41.550Z,100666.00
2022-08-12T08:25:35.096Z,100658.63
2022-08-12T08:28:04.544Z,100663.91
2022-08-12T08:30:34.426Z,100671.06
2022-08-12T08:33:03.167Z,100673.53
2022-08-12T08:35:49.317Z,100661.13
2022-08-12T08:38:32.199Z,100654.09
2022-08-12T08:42:16.164Z,100652.78
2022-08-12T08:44:13.775Z,100665.19
2022-08-12T08:46:43.851Z,100659.69
2022-08-12T08:49:13.397Z,100657.09
2022-08-12T08:51:42.721Z,100655.19
2022-08-12T08:54:12.744Z,100656.34
2022-08-12T08:56:46.504Z,100663.50
2022-08-12T08:59:19.410Z,100666.06
2022-08-12T09:01:49.506Z,100665.53
2022-08-12T09:05:12.130Z,100667.78
2022-08-12T09:07:17.837Z,100648.34
2022-08-12T09:10:02.762Z,100669.78
2022-08-12T09:15:42.418Z,100621.41
2022-08-12T09:21:17.949Z,100654.56
2022-08-12T09:24:00.492Z,100663.84
2022-08-12T09:26:45.871Z,100676.09
2022-08-12T09:29:16.065Z,100684.28
2022-08-12T09:32:03.283Z,100682.28
2022-08-12T09:34:43.174Z,100680.19
2022-08-12T09:37:19.504Z,100687.72
2022-08-12T09:40:05.802Z,100688.84
2022-08-12T09:43:16.573Z,100688.13
2022-08-12T09:46:06.455Z,100695.22
2022-08-12T09:48:44.490Z,100693.31
2022-08-12T09:51:17.211Z,100702.88
2022-08-12T09:54:08.367Z,100704.78
2022-08-12T09:57:03.181Z,100704.53
2022-08-12T10:00:13.961Z,100704.28
2022-08-12T10:02:44.707Z,100696.38
2022-08-12T10:05:13.873Z,100698.47
2022-08-12T10:07:46.897Z,100696.88
2022-08-12T10:10:22.929Z,100695.53
2022-08-12T10:13:34.392Z,100705.56
2022-08-12T10:16:06.323Z,100717.13
2022-08-12T10:18:51.753Z,100694.50
2022-08-12T10:21:36.016Z,100694.84
2022-08-12T10:24:08.456Z,100705.59
2022-08-12T10:26:57.271Z,100712.94
2022-08-12T10:30:03.067Z,100723.19
2022-08-12T10:32:44.474Z,100705.22
2022-08-12T10:35:17.154Z,100713.63
2022-08-12T10:38:36.566Z,100712.22
2022-08-12T10:40:58.777Z,100700.81
2022-08-12T10:43:54.486Z,100710.53
2022-08-12T10:46:31.025Z,100720.84
2022-08-12T10:49:07.084Z,100720.00
2022-08-12T10:52:33.434Z,100666.41
2022-08-12T10:54:43.795Z,100716.47
2022-08-12T10:58:12.974Z,100716.66
2022-08-12T11:00:30.265Z,100723.88
2022-08-12T11:04:31.295Z,100718.31
2022-08-12T11:07:03.347Z,100717.09
2022-08-12T11:08:42.763Z,100732.44
2022-08-12T11:12:36.097Z,100726.63
2022-08-12T11:14:49.670Z,100713.31
2022-08-12T11:17:34.273Z,100712.56
2022-08-12T11:19:48.817Z,100711.53
2022-08-12T11:22:18.133Z,100710.53
2022-08-12T11:24:55.561Z,100709.13
2022-08-12T11:27:26.056Z,100705.38
2022-08-12T11:30:01.978Z,100700.50
2022-08-12T11:32:38.606Z,100687.59
2022-08-12T11:35:11.505Z,100585.41
2022-08-12T11:37:41.444Z,100671.69
2022-08-12T11:40:28.439Z,100665.47
2022-08-12T11:43:03.596Z,100673.41
2022-08-12T11:45:52.947Z,100677.81
2022-08-12T11:48:26.986Z,100704.25
2022-08-12T11:50:56.981Z,100693.16
2022-08-12T11:53:57.152Z,100696.94
2022-08-12T11:56:15.050Z,100700.13
2022-08-12T12:02:03.067Z,100703.78
2022-08-12T12:04:28.918Z,100704.66
2022-08-12T12:07:06.617Z,100633.72
2022-08-12T12:09:53.104Z,100698.53
2022-08-12T12:12:25.232Z,100707.94
2022-08-12T12:14:55.692Z,100712.72
2022-08-12T12:17:25.184Z,100711.84
2022-08-12T12:19:55.160Z,100707.19
2022-08-12T12:22:27.118Z,100712.63
2022-08-12T12:25:13.329Z,100702.09
2022-08-12T12:28:04.717Z,100701.13
2022-08-12T12:30:40.397Z,100710.03
2022-08-12T12:33:23.971Z,100694.00
2022-08-12T12:36:16.672Z,100716.53
2022-08-12T12:38:42.064Z,100713.66
2022-08-12T12:41:16.321Z,100709.47
2022-08-12T12:43:56.516Z,100700.97
2022-08-12T12:46:34.511Z,100707.19
2022-08-12T12:49:11.032Z,100687.50
2022-08-12T12:51:49.007Z,100704.00
2022-08-12T12:54:29.262Z,100670.75
2022-08-12T12:56:58.701Z,100694.28
2022-08-12T12:59:55.543Z,100682.78
2022-08-12T13:02:31.519Z,100704.31
2022-08-12T13:05:00.801Z,100696.50
2022-08-12T13:07:49.351Z,100693.75
2022-08-12T13:10:23.906Z,100692.53
2022-08-12T13:12:53.995Z,100676.34
2022-08-12T13:15:45.024Z,100694.13
2022-08-12T13:18:15.614Z,100649.78
2022-08-12T13:20:49.468Z,100675.69
2022-08-12T13:23:36.370Z,100684.94
2022-08-12T13:26:14.531Z,100690.56
2022-08-12T13:28:53.055Z,100681.84
2022-08-12T13:31:27.275Z,100686.63
2022-08-12T13:34:33.479Z,100686.31
2022-08-12T13:36:47.450Z,100697.22
2022-08-12T13:39:16.494Z,100692.22
2022-08-12T13:41:45.507Z,100633.00
2022-08-12T13:44:16.974Z,100684.38
2022-08-12T13:46:58.528Z,100676.41
2022-08-12T13:49:54.508Z,100696.09
2022-08-12T13:52:20.488Z,100683.25
2022-08-12T13:54:56.242Z,100690.34
2022-08-12T13:57:26.741Z,100702.53
2022-08-12T14:00:00.447Z,100686.19
2022-08-12T14:02:29.770Z,100690.81
2022-08-12T14:05:00.108Z,100701.47
2022-08-12T14:07:48.782Z,100690.69
2022-08-12T14:10:39.014Z,100668.00
2022-08-12T14:14:04.207Z,100676.84
2022-08-12T14:16:14.294Z,100664.69
2022-08-12T14:18:49.148Z,100676.13
2022-08-12T14:21:22.473Z,100667.63
2022-08-12T14:24:05.798Z,100685.91
2022-08-12T14:26:41.766Z,100693.69
2022-08-12T14:29:11.914Z,100706.69
2022-08-12T14:32:03.404Z,100710.78
2022-08-12T14:34:33.817Z,100698.50
2022-08-12T14:37:07.258Z,100673.22
2022-08-12T14:39:47.026Z,100636.44
2022-08-12T14:42:20.258Z,100587.25
2022-08-12T14:44:59.016Z,100648.16
2022-08-12T14:47:50.069Z,100656.25
2022-08-12T14:50:41.014Z,100654.34
2022-08-12T14:59:20.649Z,100662.25
2022-08-12T15:01:54.520Z,100670.84
2022-08-12T15:04:29.117Z,100660.94
2022-08-12T15:07:00.446Z,100641.47
2022-08-12T15:09:31.670Z,100644.69
2022-08-12T15:12:03.807Z,100646.53
2022-08-12T15:14:35.404Z,100655.19
2022-08-12T15:17:08.518Z,100653.06
2022-08-12T15:20:24.667Z,100655.25
2022-08-12T15:22:38.296Z,100642.13
2022-08-12T15:25:17.842Z,100654.50
2022-08-12T15:28:03.876Z,100631.50
2022-08-12T15:30:37.657Z,100626.84
2022-08-12T15:33:12.947Z,100608.34
2022-08-12T15:35:52.851Z,100626.50
2022-08-12T15:38:28.316Z,100627.78
2022-08-12T15:41:00.268Z,100616.28
2022-08-12T15:43:51.691Z,100630.38
2022-08-12T15:46:25.758Z,100595.72
2022-08-12T15:48:55.783Z,100622.06
2022-08-12T15:51:59.659Z,100618.19
2022-08-12T15:54:34.089Z,100580.34
2022-08-12T15:57:10.852Z,100598.56
2022-08-12T16:00:00.046Z,100600.47
2022-08-12T16:02:50.435Z,100601.00
2022-08-12T16:06:19.506Z,100596.16
2022-08-12T16:08:19.758Z,100614.94
2022-08-12T16:10:54.118Z,100618.50
2022-08-12T16:13:32.761Z,100627.88
2022-08-12T16:16:22.450Z,100608.06
2022-08-12T16:19:01.946Z,100612.81
2022-08-12T16:21:50.461Z,100625.88
2022-08-12T16:24:22.655Z,100609.00
2022-08-12T16:26:55.450Z,100627.34
2022-08-12T16:29:53.530Z,100590.47
2022-08-12T16:32:31.514Z,100618.69
2022-08-12T16:35:02.181Z,100613.84
2022-08-12T16:38:24.240Z,100615.41
2022-08-12T16:40:24.393Z,100578.38
2022-08-12T16:43:02.128Z,100585.81
2022-08-12T16:46:05.287Z,100580.72
2022-08-12T16:48:34.814Z,100563.88
2022-08-12T16:51:09.589Z,100564.16
2022-08-12T16:53:44.096Z,100569.63
2022-08-12T16:56:17.331Z,100563.44
2022-08-12T16:58:48.315Z,100529.09
2022-08-12T17:01:19.735Z,100589.97
2022-08-12T17:04:04.779Z,100582.81
2022-08-12T17:06:46.181Z,100592.19
2022-08-12T17:09:19.013Z,100583.50
2022-08-12T17:11:50.319Z,100579.75
2022-08-12T17:14:24.865Z,100594.66
2022-08-12T17:16:57.020Z,100592.19
2022-08-12T17:20:30.447Z,100581.69
2022-08-12T17:22:21.722Z,100541.00
2022-08-12T17:24:55.438Z,100575.44
2022-08-12T17:27:32.016Z,100587.81
2022-08-12T17:30:08.749Z,100569.19
2022-08-12T17:32:53.126Z,100583.63
2022-08-12T17:35:36.547Z,100615.34
2022-08-12T17:38:11.844Z,100609.03
2022-08-12T17:40:44.359Z,100607.16
2022-08-12T17:43:57.083Z,100608.81
2022-08-12T17:46:12.771Z,100577.94
2022-08-12T17:48:55.631Z,100599.53
2022-08-12T17:51:31.473Z,100601.09
2022-08-12T17:54:11.156Z,100579.06
2022-08-12T17:56:52.879Z,100585.97
2022-08-12T17:59:47.735Z,100591.00
2022-08-12T18:02:25.512Z,100573.63
2022-08-12T18:05:09.367Z,100583.31
2022-08-12T18:07:44.236Z,100584.78
2022-08-12T18:10:43.049Z,100594.34
2022-08-12T18:13:14.200Z,100514.06
2022-08-12T18:16:12.767Z,100575.91
2022-08-12T18:18:45.764Z,100591.44
2022-08-12T18:21:20.313Z,100575.78
2022-08-12T18:23:53.987Z,100587.69
2022-08-12T18:26:24.932Z,100572.41
2022-08-12T18:28:56.913Z,100586.44
2022-08-12T18:31:43.849Z,100579.50
2022-08-12T18:34:18.565Z,100562.31
2022-08-12T18:36:55.400Z,100586.06
2022-08-12T18:39:28.393Z,100554.16
2022-08-12T18:42:00.156Z,100583.56
2022-08-12T18:44:59.942Z,100601.41
2022-08-12T18:47:49.831Z,100589.41
2022-08-12T18:50:24.775Z,100602.00
2022-08-12T18:52:58.073Z,100582.94
2022-08-12T18:55:37.433Z,100601.59
2022-08-12T18:58:10.432Z,100580.63
2022-08-12T19:00:45.306Z,100608.09
2022-08-12T19:03:39.162Z,100607.91
2022-08-12T19:06:15.789Z,100601.59
2022-08-12T19:08:47.569Z,100597.00
2022-08-12T19:11:37.952Z,100601.59
2022-08-12T19:14:28.522Z,100600.38
2022-08-12T19:17:01.521Z,100598.47
2022-08-12T19:19:37.397Z,100595.72
2022-08-12T19:22:30.778Z,100579.34
2022-08-12T19:26:00.920Z,100594.88
2022-08-12T19:28:36.564Z,100590.06
2022-08-12T19:31:56.252Z,100587.94
2022-08-12T19:36:08.308Z,100584.16
2022-08-12T19:38:03.499Z,100584.78
2022-08-12T19:40:57.524Z,100584.81
2022-08-12T19:44:00.272Z,100571.38
2022-08-12T19:46:52.950Z,100565.47
2022-08-12T19:49:53.403Z,100528.94
2022-08-12T19:52:43.111Z,100567.59
2022-08-12T19:55:38.757Z,100553.53
2022-08-12T19:58:28.439Z,100544.50
2022-08-12T20:01:17.402Z,100534.00
2022-08-12T20:04:04.940Z,100532.09
2022-08-12T20:06:53.485Z,100511.75
2022-08-12T20:09:42.896Z,100521.41
2022-08-12T20:12:34.695Z,100513.81
2022-08-12T20:15:26.279Z,100528.56
2022-08-12T20:18:44.115Z,100524.53
2022-08-12T20:21:41.098Z,100482.13
2022-08-12T20:24:32.298Z,100523.09
2022-08-12T20:27:53.698Z,100477.09
2022-08-12T20:30:52.889Z,100520.94
2022-08-12T20:33:50.637Z,100522.22
2022-08-12T20:36:47.685Z,100527.97
2022-08-12T20:39:53.732Z,100530.59
2022-08-12T20:42:46.476Z,100513.81
2022-08-12T20:45:44.870Z,100535.78
2022-08-12T20:48:41.244Z,100544.00
2022-08-12T20:51:50.885Z,100544.84
2022-08-12T20:54:40.575Z,100522.13
2022-08-12T20:57:38.339Z,100552.78
2022-08-12T21:00:41.054Z,100544.63
2022-08-12T21:03:52.301Z,100559.97
2022-08-12T21:07:08.443Z,100543.88
2022-08-12T21:09:56.612Z,100568.44
2022-08-12T21:12:44.008Z,100576.00
2022-08-12T21:15:54.565Z,100574.75
2022-08-12T21:18:52.776Z,100564.22
2022-08-12T21:21:50.038Z,100565.47
2022-08-12T21:24:38.438Z,100559.19
2022-08-12T21:27:58.188Z,100563.84
2022-08-12T21:30:55.049Z,100568.63
2022-08-12T21:34:07.429Z,100561.94
2022-08-12T21:36:56.957Z,100566.34
2022-08-12T21:39:52.155Z,100579.78
2022-08-12T21:42:40.433Z,100569.31
2022-08-12T21:45:47.938Z,100577.28
2022-08-12T21:48:42.409Z,100581.25
2022-08-12T21:51:50.078Z,100566.75
2022-08-12T21:54:42.958Z,100535.06
2022-08-12T21:57:36.457Z,100550.97
2022-08-12T22:00:40.275Z,100556.91
2022-08-12T22:04:02.693Z,100537.00
2022-08-12T22:06:54.629Z,100566.38
2022-08-12T22:09:46.953Z,100574.75
2022-08-12T22:12:46.183Z,100576.44
2022-08-12T22:15:34.294Z,100577.28
2022-08-12T22:18:23.871Z,100571.81
2022-08-12T22:21:16.976Z,100561.53
2022-08-12T22:24:09.812Z,100563.63
2022-08-12T22:27:31.861Z,100523.53
2022-08-12T22:30:37.985Z,100542.22
2022-08-12T22:33:26.692Z,100531.31
2022-08-12T22:36:20.304Z,100534.91
2022-08-12T22:39:11.809Z,100536.91
2022-08-12T22:42:20.849Z,100531.72
2022-08-12T22:45:26.126Z,100537.78
2022-08-12T22:48:21.889Z,100526.84
2022-08-12T22:51:20.296Z,100527.69
2022-08-12T22:54:07.833Z,100525.81
2022-08-12T22:57:20.647Z,100536.91
2022-08-12T23:00:27.299Z,100559.13
2022-08-12T23:03:47.850Z,100557.44
2022-08-12T23:06:25.528Z,100547.69
2022-08-12T23:09:16.112Z,100564.91
2022-08-12T23:12:08.158Z,100553.13
2022-08-12T23:15:11.069Z,100529.72
2022-08-12T23:17:58.884Z,100513.38
2022-08-12T23:20:46.490Z,100527.63
2022-08-12T23:23:57.675Z,100524.09
2022-08-12T23:27:04.184Z,100536.41
2022-08-12T23:29:59.357Z,100547.53
2022-08-12T23:33:13.143Z,100544.41
2022-08-12T23:36:03.399Z,100554.88
2022-08-12T23:38:58.541Z,100550.22
2022-08-12T23:41:56.319Z,100544.31
2022-08-12T23:45:03.623Z,100546.34
2022-08-12T23:48:08.481Z,100548.47
2022-08-12T23:51:22.666Z,100545.09
2022-08-12T23:54:17.917Z,100551.81
2022-08-12T23:57:21.089Z,100551.34
